Montrose Regional Airport
KMTJ : now visible

Airfield :











YOU CAN JOIN US ON...

 
LOGIN :

Register | Disclaimer

   EN    FR    IT 

 









Legend :    VFR   Marginal VFR   IFR   Intensive IFR   Very Intensive IFR
Visi :
Ceiling :
>= 8 km
>= 3000ft
5 to 8 km
1000 to 3000 ft
1500m to 5 km
500 to 1000 ft
800 to 1500m
200 to 500 ft
< 800m
< 200 ft
Symbols :   Thunderstorms  Fog  Heavy snow  Heavy precipitations  Wind > 20 kt






- Airport Elevation : 5759 ft


KMTJ - Montrose Regional

CURRENT METAR :
  • 112053Z AUTO 35004KT 10SM CLR 01/M06 A3023 RMK AO2 SLP248 T00061061 55015

EXPIRED METARs :
  • 111953Z AUTO 35005KT 10SM CLR 01/M06 A3022 RMK AO2 SLP243 T00111056
  • 111853Z AUTO 30003KT 10SM CLR 02/M06 A3024 RMK AO2 SLP246 T00171056

TAF KMTJ
Valid from the 11 at 18:00 until the 12 at 18:00 UTC


111739Z 1118/1218 00000KT P6SM SCT120
FM112000 34004KT P6SM SCT100 OVC200
FM120200 14005KT P6SM FEW080 SCT200



MET'MAP, your aeronautical weather chart ! - Copyright ORBIFLY December 2007 - Disclaimer

ORBIFLY MET'MAP TEAM :

Programming & Development : Alexandra Zaïnal
Concept & original design : Baudouin d'Aumeries
Assistance for programming : Marc-Olivier Méhu
Technical & hardware support : Manuel Goepfert

Contact : metmap@orbifly.com




SOURCES & CREDITS :

   NOAA       Earth
Advisory